createdAt,value
2023-10-03T00:00:16.733Z,30.211000
2023-10-03T00:05:16.688Z,30.210000
2023-10-03T00:10:16.688Z,30.209000
2023-10-03T00:15:16.717Z,30.210000
2023-10-03T00:20:16.770Z,30.211000
2023-10-03T00:25:16.931Z,30.212000
2023-10-03T00:30:16.894Z,30.211000
2023-10-03T00:35:16.786Z,30.210000
2023-10-03T00:40:17.013Z,30.213000
2023-10-03T00:45:16.845Z,30.209000
2023-10-03T00:50:16.809Z,30.209000
2023-10-03T00:55:16.868Z,30.209000
2023-10-03T01:00:16.806Z,30.214000
2023-10-03T01:05:16.858Z,30.212000
2023-10-03T01:10:16.896Z,30.211000
2023-10-03T01:15:18.833Z,30.209000
2023-10-03T01:20:16.953Z,30.212000
2023-10-03T01:25:16.916Z,30.208000
2023-10-03T01:30:16.835Z,30.209000
2023-10-03T01:35:17.107Z,30.208000
2023-10-03T01:40:16.889Z,30.206000
2023-10-03T01:45:16.916Z,30.206000
2023-10-03T01:50:16.990Z,30.205000
2023-10-03T01:55:17.108Z,30.204000
2023-10-03T02:00:17.139Z,30.204000
2023-10-03T02:05:17.115Z,30.204000
2023-10-03T02:10:17.116Z,30.203000
2023-10-03T02:15:17.026Z,30.201000
2023-10-03T02:20:17.121Z,30.200000
2023-10-03T02:25:16.957Z,30.204000
2023-10-03T02:30:17.046Z,30.200000
2023-10-03T02:35:17.111Z,30.198000
2023-10-03T02:40:17.033Z,30.199000
2023-10-03T02:45:17.150Z,30.197000
2023-10-03T02:50:17.145Z,30.198000
2023-10-03T02:55:17.422Z,30.196000
2023-10-03T03:00:17.088Z,30.193000
2023-10-03T03:05:17.262Z,30.194000
2023-10-03T03:10:17.496Z,30.193000
2023-10-03T03:15:17.248Z,30.195000
2023-10-03T03:20:17.215Z,30.197000
2023-10-03T03:25:17.145Z,30.199000
2023-10-03T03:30:17.162Z,30.196000
2023-10-03T03:35:17.270Z,30.194000
2023-10-03T03:40:17.274Z,30.195000
2023-10-03T03:45:17.329Z,30.193000
2023-10-03T03:50:17.196Z,30.190000
2023-10-03T03:55:17.250Z,30.190000
2023-10-03T04:00:16.192Z,30.190000
2023-10-03T04:05:16.249Z,30.193000
2023-10-03T04:10:16.252Z,30.191000
2023-10-03T04:15:16.398Z,30.191000
2023-10-03T04:20:16.396Z,30.191000
2023-10-03T04:25:16.253Z,30.192000
2023-10-03T04:30:16.233Z,30.194000
2023-10-03T04:35:16.277Z,30.203000
2023-10-03T04:40:16.300Z,30.198000
2023-10-03T04:45:16.368Z,30.199000
2023-10-03T04:50:16.371Z,30.200000
2023-10-03T04:55:16.312Z,30.196000
2023-10-03T05:00:16.649Z,30.193000
2023-10-03T05:05:16.396Z,30.189000
2023-10-03T05:10:16.346Z,30.189000
2023-10-03T05:15:16.429Z,30.189000
2023-10-03T05:20:16.450Z,30.191000
2023-10-03T05:25:16.486Z,30.195000
2023-10-03T05:30:16.570Z,30.195000
2023-10-03T05:35:16.604Z,30.199000
2023-10-03T05:40:16.592Z,30.201000
2023-10-03T05:45:16.424Z,30.199000
2023-10-03T05:50:16.802Z,30.200000
2023-10-03T05:55:16.475Z,30.201000
2023-10-03T06:00:16.610Z,30.200000
2023-10-03T06:05:16.687Z,30.198000
2023-10-03T06:10:16.628Z,30.196000
2023-10-03T06:15:16.521Z,30.193000
2023-10-03T06:20:16.744Z,30.192000
2023-10-03T06:25:16.617Z,30.188000
2023-10-03T06:30:16.546Z,30.189000
2023-10-03T06:35:16.495Z,30.189000
2023-10-03T06:40:16.623Z,30.187000
2023-10-03T06:45:16.640Z,30.189000
2023-10-03T06:50:16.739Z,30.190000
2023-10-03T06:55:16.619Z,30.187000
2023-10-03T07:00:16.754Z,30.187000
2023-10-03T07:05:16.491Z,30.185000
2023-10-03T07:10:16.655Z,30.188000
2023-10-03T07:15:16.665Z,30.188000
2023-10-03T07:20:16.802Z,30.188000
2023-10-03T07:25:16.719Z,30.187000
2023-10-03T07:30:17.026Z,30.190000
2023-10-03T07:35:16.709Z,30.188000
2023-10-03T07:40:16.723Z,30.186000
2023-10-03T07:45:16.786Z,30.183000
2023-10-03T07:50:16.728Z,30.177000
2023-10-03T07:55:16.777Z,30.174000
2023-10-03T08:00:16.882Z,30.177000
2023-10-03T08:05:16.855Z,30.175000
2023-10-03T08:10:16.792Z,30.170000
2023-10-03T08:15:16.990Z,30.168000
2023-10-03T08:20:16.821Z,30.168000
2023-10-03T08:25:16.938Z,30.166000
2023-10-03T08:30:17.117Z,30.165000
2023-10-03T08:35:16.825Z,30.166000
2023-10-03T08:40:16.991Z,30.165000
2023-10-03T08:45:16.949Z,30.165000
2023-10-03T08:50:16.864Z,30.163000
2023-10-03T08:55:16.941Z,30.163000
2023-10-03T09:00:17.654Z,30.161000
2023-10-03T09:05:16.906Z,30.162000
2023-10-03T09:10:16.968Z,30.159000
2023-10-03T09:15:16.853Z,30.158000
2023-10-03T09:20:16.945Z,30.159000
2023-10-03T09:25:17.031Z,30.157000
2023-10-03T09:30:16.974Z,30.155000
2023-10-03T09:35:17.017Z,30.156000
2023-10-03T09:40:17.427Z,30.155000
2023-10-03T09:45:17.834Z,30.154000
2023-10-03T09:50:17.131Z,30.153000
2023-10-03T09:55:17.080Z,30.155000
2023-10-03T10:00:17.024Z,30.155000
2023-10-03T10:05:17.146Z,30.156000
2023-10-03T10:10:16.994Z,30.154000
2023-10-03T10:15:18.478Z,30.155000
2023-10-03T10:20:18.914Z,30.157000
2023-10-03T10:25:17.059Z,30.155000
2023-10-03T10:30:17.058Z,30.154000
2023-10-03T10:35:17.126Z,30.153000
2023-10-03T10:40:17.271Z,30.155000
2023-10-03T10:45:17.233Z,30.154000
2023-10-03T10:50:22.335Z,30.153000
2023-10-03T10:55:17.126Z,30.152000
2023-10-03T11:00:17.283Z,30.154000
2023-10-03T11:05:17.096Z,30.151000
2023-10-03T11:10:34.104Z,30.152000
2023-10-03T11:15:17.473Z,30.152000
2023-10-03T11:20:17.164Z,30.154000
2023-10-03T11:25:17.202Z,30.156000
2023-10-03T11:30:17.411Z,30.154000
2023-10-03T11:35:17.251Z,30.153000
2023-10-03T11:40:17.241Z,30.149000
2023-10-03T11:45:17.248Z,30.149000
2023-10-03T11:50:17.382Z,30.152000
2023-10-03T11:55:17.274Z,30.153000
2023-10-03T12:00:17.280Z,30.152000
2023-10-03T12:05:17.335Z,30.156000
2023-10-03T12:10:17.303Z,30.157000
2023-10-03T12:15:17.308Z,30.164000
2023-10-03T12:20:17.342Z,30.162000
2023-10-03T12:25:17.362Z,30.161000
2023-10-03T12:30:17.331Z,30.161000
2023-10-03T12:35:17.418Z,30.159000
2023-10-03T12:40:17.590Z,30.155000
2023-10-03T12:45:17.440Z,30.158000
2023-10-03T12:50:17.385Z,30.161000
2023-10-03T12:55:17.427Z,30.162000
2023-10-03T13:00:15.462Z,30.164000
2023-10-03T13:05:15.310Z,30.164000
2023-10-03T13:10:15.666Z,30.159000
2023-10-03T13:15:15.568Z,30.162000
2023-10-03T13:20:15.527Z,30.160000
2023-10-03T13:25:15.442Z,30.160000
2023-10-03T13:30:15.480Z,30.159000
2023-10-03T13:35:15.448Z,30.155000
2023-10-03T13:40:15.934Z,30.157000
2023-10-03T13:45:15.511Z,30.152000
2023-10-03T13:50:15.535Z,30.148000
2023-10-03T13:55:15.548Z,30.149000
2023-10-03T14:00:15.843Z,30.148000
2023-10-03T14:05:15.650Z,30.148000
2023-10-03T14:10:15.568Z,30.145000
2023-10-03T14:15:15.774Z,30.146000
2023-10-03T14:20:15.560Z,30.145000
2023-10-03T14:25:15.627Z,30.147000
2023-10-03T14:30:15.860Z,30.146000
2023-10-03T14:35:15.693Z,30.144000
2023-10-03T14:40:15.714Z,30.145000
2023-10-03T14:45:15.808Z,30.147000
2023-10-03T14:50:15.648Z,30.147000
2023-10-03T14:55:15.721Z,30.143000
2023-10-03T15:00:15.784Z,30.141000
2023-10-03T15:05:15.638Z,30.141000
2023-10-03T15:10:15.813Z,30.139000
2023-10-03T15:15:15.806Z,30.137000
2023-10-03T15:20:15.762Z,30.136000
2023-10-03T15:25:15.983Z,30.137000
2023-10-03T15:30:15.804Z,30.138000
2023-10-03T15:35:15.859Z,30.134000
2023-10-03T15:40:15.763Z,30.134000
2023-10-03T15:45:17.452Z,30.132000
2023-10-03T15:50:15.816Z,30.132000
2023-10-03T15:55:15.841Z,30.131000
2023-10-03T16:00:16.261Z,30.130000
2023-10-03T16:05:15.902Z,30.131000
2023-10-03T16:10:15.864Z,30.130000
2023-10-03T16:15:16.848Z,30.130000
2023-10-03T16:20:16.005Z,30.127000
2023-10-03T16:25:16.024Z,30.128000
2023-10-03T16:30:15.946Z,30.127000
2023-10-03T16:35:16.653Z,30.123000
2023-10-03T16:40:16.026Z,30.125000
2023-10-03T16:45:18.021Z,30.120000
2023-10-03T16:50:16.026Z,30.121000
2023-10-03T16:55:16.069Z,30.119000
2023-10-03T17:00:16.114Z,30.117000
2023-10-03T17:05:15.927Z,30.116000
2023-10-03T17:10:16.019Z,30.114000
2023-10-03T17:15:16.057Z,30.111000
2023-10-03T17:20:16.069Z,30.110000
2023-10-03T17:25:16.008Z,30.110000
2023-10-03T17:30:16.084Z,30.103000
2023-10-03T17:35:27.040Z,30.103000
2023-10-03T17:40:16.287Z,30.102000
2023-10-03T17:45:16.084Z,30.100000
2023-10-03T17:50:16.055Z,30.100000
2023-10-03T17:55:16.204Z,30.096000
2023-10-03T18:00:16.205Z,30.099000
2023-10-03T18:05:16.084Z,30.101000
2023-10-03T18:10:16.214Z,30.098000
2023-10-03T18:15:17.011Z,30.100000
2023-10-03T18:20:16.338Z,30.097000
2023-10-03T18:25:16.125Z,30.099000
2023-10-03T18:30:16.196Z,30.098000
2023-10-03T18:35:16.965Z,30.094000
2023-10-03T18:40:16.159Z,30.092000
2023-10-03T18:45:16.221Z,30.090000
2023-10-03T18:50:16.403Z,30.092000
2023-10-03T18:55:16.377Z,30.091000
2023-10-03T19:00:16.282Z,30.087000
2023-10-03T19:05:16.086Z,30.087000
2023-10-03T19:10:16.248Z,30.087000
2023-10-03T19:15:16.222Z,30.086000
2023-10-03T19:20:16.351Z,30.085000
2023-10-03T19:25:16.251Z,30.086000
2023-10-03T19:30:20.090Z,30.084000
2023-10-03T19:35:16.239Z,30.082000
2023-10-03T19:40:16.417Z,30.081000
2023-10-03T19:45:16.507Z,30.081000
2023-10-03T19:50:16.799Z,30.081000
2023-10-03T19:55:16.345Z,30.080000
2023-10-03T20:00:16.458Z,30.079000
2023-10-03T20:05:16.348Z,30.080000
2023-10-03T20:10:17.130Z,30.079000
2023-10-03T20:15:16.504Z,30.079000
2023-10-03T20:20:16.388Z,30.077000
2023-10-03T20:25:16.366Z,30.078000
2023-10-03T20:30:16.438Z,30.081000
2023-10-03T20:35:16.476Z,30.081000
2023-10-03T20:40:16.546Z,30.080000
2023-10-03T20:45:16.644Z,30.080000
2023-10-03T20:50:16.423Z,30.078000
2023-10-03T20:55:16.532Z,30.079000
2023-10-03T21:00:16.555Z,30.079000
2023-10-03T21:05:16.418Z,30.079000
2023-10-03T21:10:16.451Z,30.080000
2023-10-03T21:15:16.594Z,30.081000
2023-10-03T21:20:16.490Z,30.081000
2023-10-03T21:25:16.560Z,30.082000
2023-10-03T21:30:16.924Z,30.085000
2023-10-03T21:35:16.777Z,30.087000
2023-10-03T21:40:16.687Z,30.085000
2023-10-03T21:45:16.662Z,30.087000
2023-10-03T21:50:16.700Z,30.086000
2023-10-03T21:55:16.707Z,30.086000
2023-10-03T22:00:16.628Z,30.087000
2023-10-03T22:05:16.791Z,30.089000
2023-10-03T22:10:16.811Z,30.088000
2023-10-03T22:15:16.681Z,30.092000
2023-10-03T22:20:16.710Z,30.092000
2023-10-03T22:25:16.772Z,30.093000
2023-10-03T22:30:16.829Z,30.096000
2023-10-03T22:35:16.679Z,30.097000
2023-10-03T22:40:16.719Z,30.098000
2023-10-03T22:45:16.768Z,30.100000
2023-10-03T22:50:16.712Z,30.101000
2023-10-03T22:55:16.733Z,30.101000
2023-10-03T23:00:16.815Z,30.103000
2023-10-03T23:05:16.763Z,30.102000
2023-10-03T23:10:16.750Z,30.105000
2023-10-03T23:15:16.888Z,30.105000
2023-10-03T23:20:16.811Z,30.103000
2023-10-03T23:25:16.894Z,30.106000
2023-10-03T23:30:16.820Z,30.107000
2023-10-03T23:35:19.476Z,30.109000
2023-10-03T23:40:16.850Z,30.110000
2023-10-03T23:45:16.874Z,30.110000
2023-10-03T23:50:16.929Z,30.111000
2023-10-03T23:55:16.941Z,30.110000
